Terminal Aerodrome Forecast
Issued by NWS Boston, MA

Home | Current Version | Previous Version | Text Only | Print | Product List | Glossary On
Versions: 1 2 3 4 5 6 7 8 9 10 11 12 13 14 15 16 17 18 19 20 21 22 23 24 25 26 27 28 29 30 31 32 33 34 35 36 37 38 39 40 41 42 43
000
FTUS41 KBOX 131734
TAFPVD
TAF
KPVD 131734Z 1318/1418 19015G25KT P6SM SCT060
     FM132300 20015KT P6SM BKN070
     FM140200 20009KT P6SM BKN070
     FM140600 20008KT P6SM OVC030 WS020/22035KT
     FM140700 20008KT P6SM OVC030
     FM140900 22007KT P6SM BKN015
     FM141500 20008KT P6SM BKN035=

USA.gov is the U.S. government's official web portal to all federal, state and local government web resources and services.